createdAt,value
2018-08-22T00:01:43.111Z,101690.11
2018-08-22T00:04:41.157Z,101690.11
2018-08-22T00:07:39.189Z,101683.47
2018-08-22T00:10:37.408Z,101686.17
2018-08-22T00:13:35.104Z,101684.33
2018-08-22T00:16:33.309Z,101681.28
2018-08-22T00:19:32.206Z,101683.12
2018-08-22T00:22:31.513Z,101680.04
2018-08-22T00:25:29.558Z,101678.69
2018-08-22T00:28:27.869Z,101675.13
2018-08-22T00:31:26.338Z,101673.44
2018-08-22T00:34:24.440Z,101670.73
2018-08-22T00:37:22.712Z,101684.23
2018-08-22T00:40:21.856Z,101682.88
2018-08-22T00:43:21.002Z,101685.20
2018-08-22T00:46:19.140Z,101683.47
2018-08-22T00:49:17.261Z,101685.68
2018-08-22T00:52:16.349Z,101684.71
2018-08-22T00:55:14.473Z,101675.37
2018-08-22T00:58:13.962Z,101674.40
2018-08-22T01:01:11.998Z,101673.91
2018-08-22T01:04:10.244Z,101673.44
2018-08-22T01:07:08.364Z,101675.27
2018-08-22T01:10:06.500Z,101670.35
2018-08-22T01:13:04.565Z,101670.73
2018-08-22T01:16:02.737Z,101670.35
2018-08-22T01:19:01.686Z,101669.00
2018-08-22T01:21:59.962Z,101667.17
2018-08-22T01:24:57.975Z,101665.81
2018-08-22T01:27:57.605Z,101668.03
2018-08-22T01:30:55.511Z,101662.73
2018-08-22T01:33:54.305Z,101663.61
2018-08-22T01:36:52.219Z,101660.52
2018-08-22T01:39:51.632Z,101667.27
2018-08-22T01:42:50.233Z,101663.74
2018-08-22T01:45:48.532Z,101667.79
2018-08-22T01:48:47.259Z,101669.14
2018-08-22T01:51:45.496Z,101667.79
2018-08-22T01:54:43.430Z,101660.66
2018-08-22T01:57:42.654Z,101661.15
2018-08-22T02:00:40.595Z,101654.05
2018-08-22T02:03:38.901Z,101663.50
2018-08-22T02:06:37.053Z,101664.84
2018-08-22T02:09:36.025Z,101670.25
2018-08-22T02:12:35.381Z,101665.05
2018-08-22T02:15:33.446Z,101664.05
2018-08-22T02:18:31.612Z,101661.88
2018-08-22T02:21:29.959Z,101660.14
2018-08-22T02:24:29.110Z,101663.33
2018-08-22T02:27:27.356Z,101663.33
2018-08-22T02:30:25.346Z,101662.98
2018-08-22T02:33:23.381Z,101661.73
2018-08-22T02:36:21.618Z,101659.03
2018-08-22T02:39:21.797Z,101663.08
2018-08-22T02:42:20.825Z,101656.47
2018-08-22T02:45:18.826Z,101655.47
2018-08-22T02:48:16.851Z,101651.56
2018-08-22T02:51:15.184Z,101658.30
2018-08-22T02:54:14.285Z,101661.49
2018-08-22T02:57:12.296Z,101655.61
2018-08-22T03:00:11.643Z,101658.79
2018-08-22T03:03:09.996Z,101654.74
2018-08-22T03:06:08.625Z,101658.45
2018-08-22T03:09:06.748Z,101651.70
2018-08-22T03:12:04.874Z,101650.70
2018-08-22T03:15:03.014Z,101649.48
2018-08-22T03:18:01.963Z,101646.30
2018-08-22T03:21:01.420Z,101653.39
2018-08-22T03:23:59.950Z,101648.86
2018-08-22T03:26:58.014Z,101644.81
2018-08-22T03:29:57.195Z,101645.30
2018-08-22T03:32:56.730Z,101646.55
2018-08-22T03:35:56.523Z,101645.30
2018-08-22T03:38:55.788Z,101644.33
2018-08-22T03:41:54.664Z,101641.63
2018-08-22T03:44:54.229Z,101636.58
2018-08-22T03:47:52.996Z,101636.23
2018-08-22T03:50:52.053Z,101629.97
2018-08-22T03:53:50.489Z,101629.00
2018-08-22T03:56:49.817Z,101633.05
2018-08-22T03:59:47.628Z,101630.84
2018-08-22T04:02:46.165Z,101636.58
2018-08-22T04:05:45.871Z,101635.23
2018-08-22T04:08:44.133Z,101637.94
2018-08-22T04:11:42.495Z,101637.94
2018-08-22T04:14:41.848Z,101639.28
2018-08-22T04:17:44.757Z,101636.09
2018-08-22T04:20:44.194Z,101634.75
2018-08-22T04:23:44.011Z,101636.09
2018-08-22T04:26:43.317Z,101636.48
2018-08-22T04:29:41.260Z,101642.22
2018-08-22T04:32:39.862Z,101644.81
2018-08-22T04:35:39.286Z,101642.47
2018-08-22T04:38:38.544Z,101643.26
2018-08-22T04:41:36.237Z,101647.55
2018-08-22T04:44:34.869Z,101646.06
2018-08-22T04:47:34.416Z,101643.60
2018-08-22T04:50:32.414Z,101641.14
2018-08-22T04:53:31.473Z,101634.53
2018-08-22T04:56:29.916Z,101640.28
2018-08-22T04:59:28.693Z,101637.81
2018-08-22T05:02:27.461Z,101635.36
2018-08-22T05:05:25.677Z,101630.72
2018-08-22T05:08:23.951Z,101632.30
2018-08-22T05:11:21.984Z,101629.84
2018-08-22T05:14:21.445Z,101622.47
2018-08-22T05:17:20.116Z,101624.05
2018-08-22T05:20:18.401Z,101624.67
2018-08-22T05:23:17.660Z,101622.31
2018-08-22T05:26:16.186Z,101616.30
2018-08-22T05:29:14.242Z,101616.67
2018-08-22T05:32:12.234Z,101612.86
2018-08-22T05:35:10.484Z,101605.86
2018-08-22T05:38:09.706Z,101605.61
2018-08-22T05:41:08.838Z,101599.09
2018-08-22T05:44:07.314Z,101598.45
2018-08-22T05:47:05.305Z,101580.76
2018-08-22T05:50:03.849Z,101582.34
2018-08-22T05:53:01.588Z,101582.72
2018-08-22T05:56:01.373Z,101578.90
2018-08-22T05:58:59.231Z,101582.81
2018-08-22T06:01:57.930Z,101572.76
2018-08-22T06:04:57.639Z,101577.64
2018-08-22T06:07:56.750Z,101576.67
2018-08-22T06:10:55.824Z,101581.47
2018-08-22T06:13:54.355Z,101573.59
2018-08-22T06:16:52.318Z,101571.27
2018-08-22T06:19:50.430Z,101566.73
2018-08-22T06:22:48.556Z,101561.67
2018-08-22T06:25:47.971Z,101559.49
2018-08-22T06:28:46.875Z,101555.30
2018-08-22T06:31:45.982Z,101550.27
2018-08-22T06:34:45.114Z,101545.09
2018-08-22T06:37:43.447Z,101551.22
2018-08-22T06:40:41.321Z,101545.66
2018-08-22T06:43:40.714Z,101540.15
2018-08-22T06:46:39.593Z,101538.55
2018-08-22T06:49:37.707Z,101432.14
2018-08-22T06:52:35.473Z,101535.92
2018-08-22T06:55:33.721Z,101526.69
2018-08-22T06:58:31.752Z,101530.59
2018-08-22T07:01:30.076Z,101522.00
2018-08-22T07:04:28.082Z,101528.13
2018-08-22T07:07:26.345Z,101523.09
2018-08-22T07:10:25.044Z,101526.17
2018-08-22T07:13:23.909Z,101525.68
2018-08-22T07:16:23.304Z,101521.63
2018-08-22T07:19:22.101Z,101524.19
2018-08-22T07:22:20.505Z,101512.51
2018-08-22T07:25:19.161Z,101511.64
2018-08-22T07:28:17.173Z,101507.59
2018-08-22T07:31:15.333Z,101506.23
2018-08-22T07:34:13.234Z,101496.92
2018-08-22T07:37:11.200Z,101499.14
2018-08-22T07:40:09.202Z,101494.23
2018-08-22T07:43:07.536Z,101489.80
2018-08-22T07:46:05.454Z,101485.89
2018-08-22T07:49:03.564Z,101492.50
2018-08-22T07:52:01.324Z,101486.38
2018-08-22T07:54:59.730Z,101489.57
2018-08-22T07:57:57.648Z,101478.91
2018-08-22T08:00:56.032Z,101476.55
2018-08-22T08:03:54.856Z,101472.64
2018-08-22T08:06:52.894Z,101466.25
2018-08-22T08:09:50.718Z,101467.09
2018-08-22T08:12:48.959Z,101466.74
2018-08-22T08:15:46.743Z,101452.78
2018-08-22T08:18:45.272Z,101461.83
2018-08-22T08:21:44.815Z,101461.45
2018-08-22T08:24:43.438Z,101457.77
2018-08-22T08:27:41.678Z,101450.16
2018-08-22T08:30:40.500Z,101455.22
2018-08-22T08:33:38.561Z,101445.23
2018-08-22T08:36:37.538Z,101447.94
2018-08-22T08:39:35.292Z,101439.50
2018-08-22T08:42:33.561Z,101435.78
2018-08-22T08:45:31.639Z,101437.99
2018-08-22T08:48:30.008Z,101427.82
2018-08-22T08:51:28.957Z,101433.23
2018-08-22T08:54:27.075Z,101426.47
2018-08-22T08:57:25.201Z,101423.39
2018-08-22T09:00:23.399Z,101416.64
2018-08-22T09:03:21.039Z,101412.24
2018-08-22T09:06:19.299Z,101402.78
2018-08-22T09:09:18.745Z,101406.47
2018-08-22T09:12:16.994Z,101402.91
2018-08-22T09:15:16.006Z,101395.80
2018-08-22T09:18:14.269Z,101381.44
2018-08-22T09:21:12.209Z,101371.60
2018-08-22T09:24:11.474Z,101369.42
2018-08-22T09:27:09.464Z,101370.89
2018-08-22T09:30:07.323Z,101368.19
2018-08-22T09:33:05.821Z,101356.67
2018-08-22T09:36:04.454Z,101355.31
2018-08-22T09:39:02.566Z,101345.15
2018-08-22T09:42:01.002Z,101346.61
2018-08-22T09:44:59.459Z,101343.58
2018-08-22T09:47:58.151Z,101342.34
2018-08-22T09:50:56.261Z,101348.75
2018-08-22T09:53:55.326Z,101349.73
2018-08-22T09:56:53.392Z,101350.38
2018-08-22T09:59:51.869Z,101350.00
2018-08-22T10:02:49.861Z,101348.31
2018-08-22T10:05:49.085Z,101341.64
2018-08-22T10:08:46.911Z,101331.47
2018-08-22T10:11:45.325Z,101344.12
2018-08-22T10:14:43.327Z,101345.09
2018-08-22T10:17:41.313Z,101334.81
2018-08-22T10:20:39.345Z,101336.77
2018-08-22T10:23:37.754Z,101338.98
2018-08-22T10:26:36.565Z,101322.92
2018-08-22T10:29:35.773Z,101322.92
2018-08-22T10:32:33.983Z,101320.71
2018-08-22T10:35:31.938Z,101319.84
2018-08-22T10:38:29.845Z,101315.80
2018-08-22T10:41:28.290Z,101323.56
2018-08-22T10:44:26.723Z,101321.83
2018-08-22T10:47:25.213Z,101330.31
2018-08-22T10:50:23.774Z,101329.08
2018-08-22T10:53:22.372Z,101329.45
2018-08-22T10:56:20.746Z,101325.02
2018-08-22T10:59:20.418Z,101322.32
2018-08-22T11:02:19.363Z,101318.91
2018-08-22T11:05:18.593Z,101322.47
2018-08-22T11:08:16.448Z,101309.83
2018-08-22T11:11:14.512Z,101314.86
2018-08-22T11:14:12.692Z,101308.59
2018-08-22T11:17:10.969Z,101311.30
2018-08-22T11:20:09.980Z,101301.99
2018-08-22T11:23:21.054Z,101307.39
2018-08-22T11:26:31.185Z,101301.99
2018-08-22T11:29:42.263Z,101304.32
2018-08-22T11:32:52.318Z,101302.26
2018-08-22T11:35:50.085Z,101297.84
2018-08-22T11:38:48.025Z,101311.34
2018-08-22T11:41:46.184Z,101302.38
2018-08-22T11:44:44.195Z,101305.08
2018-08-22T11:47:42.308Z,101294.80
2018-08-22T11:50:40.278Z,101290.37
2018-08-22T11:53:38.734Z,101291.34
2018-08-22T11:56:37.046Z,101281.07
2018-08-22T11:59:35.714Z,101282.91
2018-08-22T12:02:34.819Z,101286.09
2018-08-22T12:05:33.593Z,101281.19
2018-08-22T12:08:31.935Z,101280.84
2018-08-22T12:11:30.245Z,101265.62
2018-08-22T12:14:28.487Z,101263.41
2018-08-22T12:17:27.070Z,101257.14
2018-08-22T12:20:25.765Z,101257.67
2018-08-22T12:23:24.052Z,101254.11
2018-08-22T12:26:22.297Z,101254.59
2018-08-22T12:29:20.501Z,101252.88
2018-08-22T12:32:18.868Z,101243.09
2018-08-22T12:35:17.539Z,101242.22
2018-08-22T12:38:15.369Z,101244.06
2018-08-22T12:41:13.598Z,101240.16
2018-08-22T12:44:11.500Z,101232.89
2018-08-22T12:47:09.523Z,101222.61
2018-08-22T12:50:07.549Z,101222.23
2018-08-22T12:53:06.610Z,101214.14
2018-08-22T12:56:04.828Z,101212.79
2018-08-22T12:59:03.183Z,101212.79
2018-08-22T13:02:01.917Z,101209.60
2018-08-22T13:05:00.355Z,101196.10
2018-08-22T13:07:58.924Z,101194.75
2018-08-22T13:10:57.019Z,101179.41
2018-08-22T13:13:56.233Z,101168.09
2018-08-22T13:16:54.787Z,101167.60
2018-08-22T13:19:53.210Z,101161.34
2018-08-22T13:22:52.181Z,101164.91
2018-08-22T13:25:50.801Z,101158.64
2018-08-22T13:28:50.277Z,101157.81
2018-08-22T13:31:48.170Z,101164.91
2018-08-22T13:34:47.454Z,101169.44
2018-08-22T13:37:45.487Z,101166.74
2018-08-22T13:40:44.422Z,101156.47
2018-08-22T13:43:42.422Z,101150.20
2018-08-22T13:46:41.816Z,101145.66
2018-08-22T13:49:40.648Z,101142.97
2018-08-22T13:52:39.913Z,101137.05
2018-08-22T13:55:39.018Z,101143.79
2018-08-22T13:58:38.048Z,101138.55
2018-08-22T14:01:36.434Z,101141.09
2018-08-22T14:04:34.723Z,101139.41
2018-08-22T14:07:33.490Z,101137.20
2018-08-22T14:10:31.754Z,101140.75
2018-08-22T14:13:29.690Z,101140.38
2018-08-22T14:16:27.856Z,101133.78
2018-08-22T14:19:26.149Z,101131.09
2018-08-22T14:22:24.921Z,101130.72
2018-08-22T14:25:24.445Z,101123.62
2018-08-22T14:28:23.518Z,101124.61
2018-08-22T14:31:21.777Z,101123.26
2018-08-22T14:34:20.265Z,101129.64
2018-08-22T14:37:19.395Z,101128.28
2018-08-22T14:40:17.415Z,101129.30
2018-08-22T14:43:16.486Z,101129.30
2018-08-22T14:46:15.140Z,101126.23
2018-08-22T14:49:13.027Z,101124.02
2018-08-22T14:52:12.484Z,101116.56
2018-08-22T14:55:10.765Z,101113.86
2018-08-22T14:58:09.018Z,101108.09
2018-08-22T15:01:07.278Z,101102.70
2018-08-22T15:04:05.291Z,101098.80
2018-08-22T15:07:03.419Z,101101.87
2018-08-22T15:10:01.456Z,101097.45
2018-08-22T15:12:59.610Z,101092.54
2018-08-22T15:15:57.722Z,101098.42
2018-08-22T15:18:55.606Z,101088.98
2018-08-22T15:21:53.668Z,101088.64
2018-08-22T15:24:51.561Z,101082.38
2018-08-22T15:27:50.025Z,101077.84
2018-08-22T15:30:48.378Z,101076.50
2018-08-22T15:33:47.092Z,101075.14
2018-08-22T15:36:46.693Z,101073.80
2018-08-22T15:39:45.498Z,101070.73
2018-08-22T15:42:44.006Z,101070.23
2018-08-22T15:45:42.841Z,101061.66
2018-08-22T15:48:41.300Z,101067.05
2018-08-22T15:51:39.614Z,101053.55
2018-08-22T15:54:38.068Z,101051.72
2018-08-22T15:57:37.395Z,101048.16
2018-08-22T16:00:44.363Z,101044.11
2018-08-22T16:03:42.905Z,101038.34
2018-08-22T16:06:41.988Z,101030.61
2018-08-22T16:09:41.094Z,101030.61
2018-08-22T16:12:39.274Z,101029.75
2018-08-22T16:15:37.505Z,101027.91
2018-08-22T16:18:35.341Z,101023.00
2018-08-22T16:21:34.329Z,101017.12
2018-08-22T16:24:32.363Z,101014.91
2018-08-22T16:27:31.495Z,101003.25
2018-08-22T16:30:29.542Z,101004.11
2018-08-22T16:33:27.800Z,100998.34
2018-08-22T16:36:31.497Z,101000.06
2018-08-22T16:39:39.942Z,100996.50
2018-08-22T16:42:46.598Z,100984.52
2018-08-22T16:45:48.977Z,100982.80
2018-08-22T16:48:48.535Z,100974.70
2018-08-22T16:51:47.204Z,100977.89
2018-08-22T16:54:46.189Z,100979.23
2018-08-22T16:57:44.602Z,100969.45
2018-08-22T17:00:55.905Z,100961.84
2018-08-22T17:03:54.165Z,100958.29
2018-08-22T17:06:53.291Z,100953.05
2018-08-22T17:09:51.676Z,100951.20
2018-08-22T17:12:55.733Z,100947.66
2018-08-22T17:15:53.901Z,100945.81
2018-08-22T17:18:51.826Z,100943.45
2018-08-22T17:21:51.138Z,100934.49
2018-08-22T17:24:49.692Z,100938.05
2018-08-22T17:27:49.172Z,100936.21
2018-08-22T17:30:53.042Z,100943.66
2018-08-22T17:33:55.507Z,100933.72
2018-08-22T17:36:54.271Z,100934.91
2018-08-22T17:39:52.348Z,100931.08
2018-08-22T17:42:50.647Z,100924.21
2018-08-22T17:45:57.447Z,100919.88
2018-08-22T17:48:55.603Z,100918.37
2018-08-22T17:52:01.911Z,100917.23
2018-08-22T17:55:00.036Z,100915.61
2018-08-22T17:57:58.442Z,100916.31
2018-08-22T18:00:56.523Z,100839.67
2018-08-22T18:03:55.727Z,100920.45
2018-08-22T18:06:53.732Z,100906.66
2018-08-22T18:09:53.107Z,100905.16
2018-08-22T18:12:51.343Z,100904.51
2018-08-22T18:15:51.136Z,100896.41
2018-08-22T18:18:49.196Z,100900.33
2018-08-22T18:21:54.442Z,100905.73
2018-08-22T18:24:58.825Z,100905.08
2018-08-22T18:28:02.920Z,100899.19
2018-08-22T18:31:00.699Z,100893.42
2018-08-22T18:34:10.939Z,100893.79
2018-08-22T18:37:08.995Z,100892.44
2018-08-22T18:40:14.652Z,100880.29
2018-08-22T18:43:17.148Z,100878.08
2018-08-22T18:46:21.549Z,100877.59
2018-08-22T18:49:20.602Z,100882.13
2018-08-22T18:52:18.687Z,100874.03
2018-08-22T18:55:16.663Z,100881.64
2018-08-22T18:58:14.705Z,100870.84
2018-08-22T19:01:13.673Z,100873.02
2018-08-22T19:04:12.029Z,100878.57
2018-08-22T19:07:09.676Z,100868.14
2018-08-22T19:10:07.627Z,100876.73
2018-08-22T19:13:12.582Z,100875.50
2018-08-22T19:16:17.212Z,100866.22
2018-08-22T19:19:15.110Z,100875.17
2018-08-22T19:22:13.344Z,100866.22
2018-08-22T19:25:18.607Z,100869.90
2018-08-22T19:28:17.204Z,100870.42
2018-08-22T19:31:15.408Z,100874.11
2018-08-22T19:34:14.548Z,100865.15
2018-08-22T19:37:12.993Z,100866.98
2018-08-22T19:40:20.357Z,100869.69
2018-08-22T19:43:18.818Z,100868.50
2018-08-22T19:46:17.164Z,100865.80
2018-08-22T19:49:15.538Z,100867.64
2018-08-22T19:52:14.038Z,100859.54
2018-08-22T19:55:12.290Z,100860.56
2018-08-22T19:58:11.606Z,100854.79
2018-08-22T20:01:10.720Z,100854.79
2018-08-22T20:04:10.127Z,100853.45
2018-08-22T20:07:08.211Z,100851.60
2018-08-22T20:10:09.460Z,100847.89
2018-08-22T20:13:09.649Z,100854.14
2018-08-22T20:16:14.805Z,100850.95
2018-08-22T20:19:20.732Z,100838.64
2018-08-22T20:22:19.022Z,100842.56
2018-08-22T20:25:19.354Z,100832.63
2018-08-22T20:28:17.261Z,100829.06
2018-08-22T20:31:19.554Z,100829.27
2018-08-22T20:34:23.718Z,100827.92
2018-08-22T20:37:22.019Z,100828.25
2018-08-22T20:40:20.209Z,100826.91
2018-08-22T20:43:23.202Z,100825.27
2018-08-22T20:46:21.797Z,100818.88
2018-08-22T20:49:19.920Z,100820.56
2018-08-22T20:52:18.216Z,100818.59
2018-08-22T20:55:17.218Z,100820.27
2018-08-22T20:58:16.477Z,100817.45
2018-08-22T21:01:14.501Z,100814.09
2018-08-22T21:04:13.986Z,100807.18
2018-08-22T21:07:13.100Z,100808.41
2018-08-22T21:10:11.381Z,100805.54
2018-08-22T21:13:09.593Z,100798.79
2018-08-22T21:16:07.868Z,100795.59
2018-08-22T21:19:06.118Z,100793.75
2018-08-22T21:22:04.473Z,100799.84
2018-08-22T21:25:04.506Z,100794.45
2018-08-22T21:28:02.870Z,100784.50
2018-08-22T21:31:07.915Z,100774.19
2018-08-22T21:34:07.384Z,100784.01
2018-08-22T21:37:07.481Z,100779.95
2018-08-22T21:40:06.038Z,100772.68
2018-08-22T21:43:07.117Z,100779.80
2018-08-22T21:46:06.052Z,100773.53
2018-08-22T21:49:08.290Z,100783.48
2018-08-22T21:52:07.554Z,100773.53
2018-08-22T21:55:05.591Z,100776.73
2018-08-22T21:58:04.080Z,100772.68
2018-08-22T22:01:02.041Z,100769.16
2018-08-22T22:04:00.262Z,100770.50
2018-08-22T22:06:59.511Z,100778.08
2018-08-22T22:09:58.958Z,100783.48
2018-08-22T22:12:58.571Z,100768.79
2018-08-22T22:15:58.241Z,100776.89
2018-08-22T22:18:57.428Z,100769.28
2018-08-22T22:21:55.449Z,100764.17
2018-08-22T22:25:03.772Z,100769.78
2018-08-22T22:28:02.059Z,100765.39
2018-08-22T22:31:00.158Z,100764.53
2018-08-22T22:34:05.456Z,100755.58
2018-08-22T22:37:03.714Z,100757.42
2018-08-22T22:40:06.159Z,100763.68
2018-08-22T22:43:05.818Z,100762.49
2018-08-22T22:46:04.117Z,100754.88
2018-08-22T22:49:03.282Z,100754.03
2018-08-22T22:52:03.657Z,100757.75
2018-08-22T22:55:06.797Z,100755.54
2018-08-22T22:58:05.643Z,100757.38
2018-08-22T23:01:03.667Z,100755.54
2018-08-22T23:04:04.033Z,100749.77
2018-08-22T23:07:01.870Z,100756.52
2018-08-22T23:10:12.563Z,100749.28
2018-08-22T23:13:12.062Z,100748.09
2018-08-22T23:16:11.685Z,100748.59
2018-08-22T23:19:09.887Z,100740.98
2018-08-22T23:22:08.878Z,100732.02
2018-08-22T23:25:08.047Z,100735.22
2018-08-22T23:28:07.430Z,100741.47
2018-08-22T23:31:05.321Z,100738.94
2018-08-22T23:34:04.447Z,100733.53
2018-08-22T23:37:02.723Z,100734.88
2018-08-22T23:40:02.298Z,100732.80
2018-08-22T23:43:01.697Z,100729.13
2018-08-22T23:46:04.011Z,100736.86
2018-08-22T23:49:08.206Z,100733.33
2018-08-22T23:52:08.286Z,100726.22
2018-08-22T23:55:07.639Z,100727.56
2018-08-22T23:58:07.029Z,100726.88
